Morganton, NC

11:48 PM EDT on August 28, 2015 (GMT -0400)
Salem Community | | Change Station
CLOSE
Current Station
Personal Weather Station
Location: Morganton, NC
Elevation: 1212 ft
Nearby Weather Stations

Elev 1212 ft 35.71 °N, 81.66 °W | Updated 1 hour ago

Clear
Clear
67.9 °F
Feels Like 67.9 °F
N
0.0
Wind Variable Wind from ESE
Gusts 0.0 mph

Today
High -- | Low -- °F
--% Chance of Precip.
Yesterday
High -- | Low -- °F
Precip. -- in
6:55 AM 7:59 PM
Waxing Gibbous, 99% visible
Pressure 30.27 in
Visibility 10.0 miles
Clouds Scattered Clouds 8000 ft
Dew Point 62 °F
Humidity 80%
Rainfall 0.00 in
Snow Depth Not available.
UV 0 out of 12
Pollen 8.60 out of 12
Air Quality Not available.
Flu Activity Not available.
METAR KMRN 290335Z AUTO 00000KT 10SM SCT080 18/16 A3027 RMK AO2 T01840163
Pressure 30.27 in
Visibility 10.0 miles
Clouds Scattered Clouds 8000 ft
Dew Point 62 °F
Humidity 80%
Rainfall 0.00 in
Snow Depth Not available.
UV 0 out of 12
Pollen 8.60 out of 12
Air Quality Not available.
Flu Activity Not available.
METAR KMRN 290335Z AUTO 00000KT 10SM SCT080 18/16 A3027 RMK AO2 T01840163

10-Day Weather Forecast

×

Almanac

Astronomy

Aug. 28, 2015 Rise Set
Actual Time
Civil Twilight
Nautical Twilight
Astronomical Twilight
Moon
Length of Visible Light
Length of Day
Tomorrow will be .
, % of the Moon is Illuminated

Today's Extremes

State Highs State Lows

Community

WunderPhotos

Upload Photos

1,850,609 photos uploaded!

WunderBlogs® & News

Nearby

Air Quality

  Air Quality AQ Index Pollutant
Not available.

Snow Depth

Station Depth Elevation

Earthquake Activity

City Distance Mag. Time & Date
Minimum magnitude displayed is 2.5.

Coastal Water Temperatures

Place Temperature

Stations

Nearby Weather Stations

Station Location Temp. Windchill Dew Point Humidity Wind Precip. Elev Updated Type